West Unity, Ohio
Current Conditions -  °F | °C
As of 5:55 PM on Monday 22 Dec 2014 (Local Time) from KUSE Reporting Station
Overcast Overcast  
Wind Chill: 27°   Ceiling: 7500
Heat Index: 34°   Visibility: 7mi
Dew Point: 30°   Wind: 8mph
Humidity: 87%   Direction: 70°ENE
Pressure: 29.88"   Gusts: NA
Location:  41.59°N, 84.43°W
Report Text: KUSE 222255Z AUTO 07007KT 7SM OVC075 01/M01 A2988 RMK AO2
Loading
Personal Weather Stations






























Interactive Weather Map New forecast layout! Learn more

10-Day Weather Forecast

Advertisements
Track Severe Weather on mobile